Time;durP1;ratioP1;P1;durP2;ratioP2;P2;SDS_P1;SDS_P2;PMS_P1;PMS_P2;Temp;Humidity;BMP_temperature;BMP_pressure;BME280_temperature;BME280_humidity;BME280_pressure;Samples;Min_cycle;Max_cycle;Signal;HPM_P1;HPM_P2
2023/03/05 00:00:46;;;;;;;9.57;2.35;;;2.70;99.90;;;;;;4973557;28;20037;-85
2023/03/05 00:03:11;;;;;;;6.20;2.47;;;2.70;99.90;;;;;;4972111;28;20045;-86
2023/03/05 00:05:37;;;;;;;5.70;2.28;;;2.70;99.90;;;;;;4958143;28;20038;-86
2023/03/05 00:08:03;;;;;;;10.45;2.22;;;2.70;99.90;;;;;;4987118;28;20141;-85
2023/03/05 00:10:29;;;;;;;7.72;2.35;;;2.70;99.90;;;;;;5001948;28;20084;-86
2023/03/05 00:12:54;;;;;;;8.77;2.28;;;2.70;99.90;;;;;;4998812;28;20133;-86
2023/03/05 00:15:20;;;;;;;4.68;2.00;;;2.70;99.90;;;;;;5013368;28;20029;-86
2023/03/05 00:17:46;;;;;;;10.38;2.75;;;2.70;99.90;;;;;;4989107;28;20033;-85
2023/03/05 00:20:12;;;;;;;6.80;2.20;;;2.80;99.90;;;;;;4983412;28;20038;-86
2023/03/05 00:22:37;;;;;;;10.15;2.38;;;2.70;99.90;;;;;;4984074;28;20497;-86
2023/03/05 00:25:04;;;;;;;6.05;3.25;;;2.70;99.90;;;;;;5016292;28;20042;-86
2023/03/05 00:27:30;;;;;;;12.82;2.85;;;2.70;99.90;;;;;;5000400;28;20735;-86
2023/03/05 00:29:56;;;;;;;6.88;2.40;;;2.70;99.90;;;;;;5003611;28;20045;-86
2023/03/05 00:32:21;;;;;;;8.15;2.30;;;2.70;99.90;;;;;;4983858;28;20137;-87
2023/03/05 00:34:48;;;;;;;7.60;2.30;;;3.60;99.90;;;;;;4970358;28;20030;-85
2023/03/05 00:37:15;;;;;;;7.70;2.10;;;3.20;99.90;;;;;;5000002;28;20375;-86
2023/03/05 00:39:41;;;;;;;9.05;2.88;;;2.90;99.90;;;;;;4987887;28;20062;-86
2023/03/05 00:42:07;;;;;;;8.43;1.67;;;3.50;99.90;;;;;;4955400;28;20069;-86
2023/03/05 00:44:33;;;;;;;8.23;1.92;;;2.80;99.90;;;;;;4969871;28;20578;-86
2023/03/05 00:46:58;;;;;;;9.23;2.47;;;2.70;99.90;;;;;;4998633;28;20129;-87
2023/03/05 00:49:25;;;;;;;2.80;1.60;;;3.10;99.90;;;;;;4973632;28;20503;-87
2023/03/05 00:51:50;;;;;;;17.45;4.18;;;2.70;99.90;;;;;;4986138;28;20046;-87
2023/03/05 00:54:16;;;;;;;9.70;2.38;;;2.70;99.90;;;;;;4967850;28;20037;-87
2023/03/05 00:56:42;;;;;;;5.85;1.80;;;2.60;99.90;;;;;;4985068;28;20899;-86
2023/03/05 00:59:08;;;;;;;5.22;2.15;;;3.00;99.90;;;;;;4986219;28;20101;-85
2023/03/05 01:01:33;;;;;;;6.70;2.08;;;2.60;99.90;;;;;;4985540;28;20088;-86
2023/03/05 01:04:00;;;;;;;11.25;1.98;;;3.40;99.90;;;;;;5003973;28;20069;-86
2023/03/05 01:06:26;;;;;;;14.88;3.03;;;2.60;99.90;;;;;;5004193;28;20088;-86
2023/03/05 01:08:52;;;;;;;8.68;2.30;;;3.00;99.90;;;;;;4992834;28;20050;-87
2023/03/05 01:11:18;;;;;;;4.63;2.30;;;3.30;99.90;;;;;;4978663;28;20041;-86
2023/03/05 01:13:43;;;;;;;6.80;2.10;;;3.00;99.90;;;;;;4995790;28;20125;-87
2023/03/05 01:16:09;;;;;;;4.43;1.50;;;3.50;99.90;;;;;;4990746;28;20037;-87
2023/03/05 01:18:36;;;;;;;5.95;1.70;;;3.20;99.90;;;;;;5009960;28;20116;-85
2023/03/05 01:21:03;;;;;;;6.85;2.05;;;2.60;99.90;;;;;;5002717;28;20034;-85
2023/03/05 01:23:29;;;;;;;6.38;1.80;;;2.60;99.90;;;;;;5008644;28;20039;-85
2023/03/05 01:25:58;;;;;;;4.68;1.73;;;3.50;99.90;;;;;;5007447;28;20053;-85
2023/03/05 01:28:25;;;;;;;8.40;1.98;;;3.10;99.90;;;;;;4984971;28;21320;-85
2023/03/05 01:30:51;;;;;;;5.28;1.95;;;2.60;99.90;;;;;;4975036;28;20104;-85
2023/03/05 01:33:17;;;;;;;4.65;1.60;;;2.90;99.90;;;;;;4988982;28;20194;-84
2023/03/05 01:35:46;;;;;;;5.82;1.33;;;2.60;99.90;;;;;;4985027;28;20064;-85
2023/03/05 01:38:12;;;;;;;8.88;1.85;;;2.60;99.90;;;;;;4987830;28;20049;-85
2023/03/05 01:40:38;;;;;;;3.50;1.42;;;2.50;99.90;;;;;;5002233;28;20096;-85
2023/03/05 01:43:28;;;;;;;5.22;1.90;;;2.80;99.90;;;;;;5007342;28;20041;-85
2023/03/05 01:46:15;;;;;;;6.65;1.70;;;2.50;99.90;;;;;;4993091;28;20061;-84
2023/03/05 01:48:49;;;;;;;2.85;1.30;;;2.50;99.90;;;;;;5015569;28;20048;-85
2023/03/05 01:51:17;;;;;;;4.50;1.67;;;2.50;99.90;;;;;;5002710;28;20039;-85
2023/03/05 01:53:44;;;;;;;3.42;1.60;;;2.50;99.90;;;;;;5000658;28;20055;-85
2023/03/05 01:56:10;;;;;;;6.15;1.70;;;3.20;99.90;;;;;;5002089;28;20048;-85
2023/03/05 01:58:38;;;;;;;3.83;1.30;;;2.40;99.90;;;;;;4989347;28;20034;-85
2023/03/05 02:01:04;;;;;;;3.85;1.42;;;2.60;99.90;;;;;;4972200;28;20049;-85
2023/03/05 02:03:32;;;;;;;3.03;1.60;;;2.80;99.90;;;;;;5007319;28;20042;-85
2023/03/05 02:05:57;;;;;;;4.57;1.60;;;3.00;99.90;;;;;;4999600;28;20046;-85
2023/03/05 02:08:23;;;;;;;3.42;1.30;;;2.70;99.90;;;;;;4990366;28;20041;-85
2023/03/05 02:10:55;;;;;;;7.75;1.65;;;2.40;99.90;;;;;;4983120;28;20041;-85
2023/03/05 02:13:28;;;;;;;5.38;1.77;;;2.30;99.90;;;;;;4973771;28;20034;-85
2023/03/05 02:15:56;;;;;;;8.13;1.88;;;2.40;99.90;;;;;;4988398;28;20034;-85
2023/03/05 02:18:22;;;;;;;5.15;1.80;;;2.40;99.90;;;;;;4987059;28;20443;-85
2023/03/05 02:21:09;;;;;;;7.15;1.92;;;2.40;99.90;;;;;;5001071;28;20075;-86
2023/03/05 02:23:37;;;;;;;8.57;2.50;;;2.40;99.90;;;;;;5016737;28;20568;-86
2023/03/05 02:26:08;;;;;;;9.25;2.20;;;2.70;99.90;;;;;;5012077;28;20049;-85
2023/03/05 02:28:40;;;;;;;5.30;2.10;;;2.70;99.90;;;;;;4983002;28;20034;-86
2023/03/05 02:31:19;;;;;;;5.15;1.92;;;2.40;99.90;;;;;;4984023;28;20572;-86
2023/03/05 02:33:45;;;;;;;6.43;1.80;;;2.40;99.90;;;;;;4984370;28;20046;-86
2023/03/05 02:36:11;;;;;;;4.10;1.55;;;3.10;99.90;;;;;;5003595;28;20049;-86
2023/03/05 02:38:38;;;;;;;6.55;2.10;;;2.40;99.90;;;;;;5001013;28;20042;-86
2023/03/05 02:41:04;;;;;;;10.07;2.58;;;2.90;99.90;;;;;;4999439;28;20039;-85
2023/03/05 02:43:29;;;;;;;5.63;2.03;;;2.30;99.90;;;;;;4988863;28;20037;-86
2023/03/05 02:45:55;;;;;;;11.52;1.92;;;2.20;99.90;;;;;;4989119;28;20049;-85
2023/03/05 02:48:21;;;;;;;9.57;2.53;;;3.00;99.90;;;;;;4967260;28;20041;-86
2023/03/05 02:50:48;;;;;;;6.25;1.70;;;2.10;99.90;;;;;;5003427;28;20037;-86
2023/03/05 02:53:14;;;;;;;6.38;2.33;;;2.50;99.90;;;;;;5004048;28;20499;-86
2023/03/05 02:55:40;;;;;;;8.32;2.20;;;2.00;99.90;;;;;;4987712;28;20042;-86
2023/03/05 02:58:06;;;;;;;4.82;2.20;;;2.50;99.90;;;;;;5016037;28;20087;-86
2023/03/05 03:00:32;;;;;;;6.55;2.58;;;2.10;99.90;;;;;;4983008;28;20041;-86
2023/03/05 03:02:58;;;;;;;4.25;2.00;;;1.30;99.90;;;;;;4985109;28;20050;-86
2023/03/05 03:05:23;;;;;;;6.88;2.25;;;1.80;99.90;;;;;;4988038;28;20037;-86
2023/03/05 03:07:49;;;;;;;8.15;2.20;;;2.30;99.90;;;;;;4976481;28;20041;-86
2023/03/05 03:10:16;;;;;;;7.78;2.58;;;1.80;99.90;;;;;;4973431;28;20069;-86
2023/03/05 03:12:43;;;;;;;4.07;1.80;;;2.30;99.90;;;;;;4998919;28;20393;-86
2023/03/05 03:15:12;;;;;;;8.13;2.40;;;2.20;99.90;;;;;;4999187;28;20491;-85
2023/03/05 03:17:38;;;;;;;4.47;2.00;;;1.60;99.90;;;;;;4983119;28;20549;-85
2023/03/05 03:20:07;;;;;;;12.25;2.42;;;1.60;99.90;;;;;;4987344;28;20395;-85
2023/03/05 03:22:33;;;;;;;13.13;2.38;;;1.60;99.90;;;;;;4981696;28;20391;-84
2023/03/05 03:24:59;;;;;;;6.65;2.78;;;1.60;99.90;;;;;;4991560;28;20046;-84
2023/03/05 03:27:25;;;;;;;8.75;2.30;;;1.60;99.90;;;;;;4987961;28;20037;-85
2023/03/05 03:29:51;;;;;;;6.55;2.45;;;2.30;99.90;;;;;;5003383;28;20052;-85
2023/03/05 03:32:17;;;;;;;5.95;2.20;;;1.60;99.90;;;;;;4987122;28;20096;-85
2023/03/05 03:34:43;;;;;;;8.75;2.20;;;2.20;99.90;;;;;;4969941;28;20034;-84
2023/03/05 03:37:09;;;;;;;7.60;2.75;;;1.70;99.90;;;;;;5001779;28;20124;-85
2023/03/05 03:39:35;;;;;;;11.38;2.38;;;1.70;99.90;;;;;;5011901;28;20653;-85
2023/03/05 03:42:01;;;;;;;9.35;2.42;;;1.70;99.90;;;;;;4999781;28;20141;-85
2023/03/05 03:44:27;;;;;;;7.00;2.58;;;1.90;99.90;;;;;;5003888;28;20044;-85
2023/03/05 03:46:55;;;;;;;5.50;2.15;;;1.70;99.90;;;;;;4970456;28;20046;-85
2023/03/05 03:49:24;;;;;;;7.97;2.28;;;2.40;99.90;;;;;;4969892;28;20076;-84
2023/03/05 03:51:53;;;;;;;6.40;2.50;;;1.70;99.90;;;;;;4985327;28;20034;-84
2023/03/05 03:54:19;;;;;;;4.00;2.40;;;2.30;99.90;;;;;;4999678;28;20069;-85
2023/03/05 03:56:45;;;;;;;12.55;2.47;;;1.70;99.90;;;;;;4972188;28;20049;-84
2023/03/05 03:59:11;;;;;;;7.45;2.20;;;2.30;99.90;;;;;;4984487;28;20034;-84
2023/03/05 04:01:37;;;;;;;7.65;2.35;;;2.30;99.90;;;;;;4984706;28;20044;-84
2023/03/05 04:04:04;;;;;;;6.07;2.30;;;1.70;99.90;;;;;;4995775;28;20562;-85
2023/03/05 04:06:29;;;;;;;4.93;2.75;;;1.70;99.90;;;;;;4989432;28;20042;-85
2023/03/05 04:08:55;;;;;;;9.55;2.88;;;1.80;99.90;;;;;;4986712;28;20144;-84
2023/03/05 04:11:21;;;;;;;7.95;1.95;;;1.80;99.90;;;;;;5000017;28;20104;-84
2023/03/05 04:13:48;;;;;;;7.50;2.90;;;2.00;99.90;;;;;;4987885;28;20042;-85
2023/03/05 04:16:14;;;;;;;13.07;2.90;;;1.80;99.90;;;;;;4983170;28;20048;-85
2023/03/05 04:18:41;;;;;;;10.63;2.80;;;2.10;99.90;;;;;;5015495;28;20042;-84
2023/03/05 04:21:07;;;;;;;9.73;2.60;;;2.70;99.90;;;;;;4998250;28;20124;-84
2023/03/05 04:23:33;;;;;;;8.68;2.38;;;1.90;99.90;;;;;;4981444;28;20041;-85
2023/03/05 04:25:58;;;;;;;9.10;2.78;;;1.90;99.90;;;;;;4986081;28;20042;-85
2023/03/05 04:28:24;;;;;;;11.63;2.30;;;1.90;99.90;;;;;;5012825;28;20044;-84
2023/03/05 04:30:50;;;;;;;7.05;2.55;;;2.20;99.90;;;;;;4984186;28;20058;-85
2023/03/05 04:33:16;;;;;;;7.05;2.22;;;1.90;99.90;;;;;;4971739;28;20120;-85
2023/03/05 04:35:42;;;;;;;4.65;2.15;;;1.90;99.90;;;;;;4986006;28;20125;-84
2023/03/05 04:38:09;;;;;;;6.88;2.17;;;2.10;99.90;;;;;;4975742;28;20037;-85
2023/03/05 04:40:36;;;;;;;5.88;3.05;;;1.90;99.90;;;;;;4987517;28;20034;-84
2023/03/05 04:43:02;;;;;;;5.13;2.03;;;2.90;99.90;;;;;;4983932;28;20498;-85
2023/03/05 04:45:28;;;;;;;8.18;2.50;;;1.90;99.90;;;;;;4970708;28;20038;-85
2023/03/05 04:47:53;;;;;;;8.05;2.53;;;2.90;99.90;;;;;;5001122;28;20057;-85
2023/03/05 04:50:19;;;;;;;4.60;1.60;;;2.50;99.90;;;;;;4984314;28;20068;-85
2023/03/05 04:52:45;;;;;;;4.57;2.00;;;1.90;99.90;;;;;;5013792;28;20125;-85
2023/03/05 04:55:13;;;;;;;5.55;1.75;;;2.70;99.90;;;;;;4986837;28;20180;-85
2023/03/05 04:57:39;;;;;;;4.88;2.38;;;2.40;99.90;;;;;;4985504;28;20038;-85
2023/03/05 05:00:07;;;;;;;3.22;1.77;;;1.90;99.90;;;;;;4982665;28;20045;-85
2023/03/05 05:02:33;;;;;;;5.53;2.42;;;1.90;99.90;;;;;;4998940;28;20105;-84
2023/03/05 05:04:59;;;;;;;3.92;1.92;;;1.90;99.90;;;;;;4958933;28;20175;-85
2023/03/05 05:07:24;;;;;;;4.00;1.85;;;1.90;99.90;;;;;;4985467;28;20034;-85
2023/03/05 05:09:50;;;;;;;12.45;1.83;;;1.90;99.90;;;;;;4991462;28;20107;-85
2023/03/05 05:12:16;;;;;;;5.50;1.55;;;1.90;99.90;;;;;;5007808;28;20403;-84
2023/03/05 05:14:42;;;;;;;4.85;2.25;;;1.90;99.90;;;;;;4970882;28;20042;-85
2023/03/05 05:17:07;;;;;;;5.03;1.38;;;2.30;99.90;;;;;;5001397;28;20041;-85
2023/03/05 05:19:34;;;;;;;5.60;1.60;;;2.00;99.90;;;;;;4988632;28;20041;-85
2023/03/05 05:22:00;;;;;;;6.00;1.88;;;2.00;99.90;;;;;;4986431;28;20069;-84
2023/03/05 05:24:26;;;;;;;9.40;1.65;;;2.00;99.90;;;;;;4997346;28;20176;-85
2023/03/05 05:26:55;;;;;;;6.50;1.73;;;2.10;99.90;;;;;;4999730;28;20050;-84
2023/03/05 05:29:22;;;;;;;2.72;1.60;;;2.10;99.90;;;;;;4984019;28;20041;-84
2023/03/05 05:31:48;;;;;;;5.00;1.50;;;2.90;99.90;;;;;;4987030;28;20526;-84
2023/03/05 05:34:14;;;;;;;2.90;1.23;;;2.40;99.90;;;;;;5000284;28;20061;-84
2023/03/05 05:36:40;;;;;;;4.88;1.52;;;2.80;99.90;;;;;;5001193;28;20669;-85
2023/03/05 05:39:05;;;;;;;4.40;1.42;;;2.40;99.90;;;;;;4955140;28;20034;-84
2023/03/05 05:41:31;;;;;;;3.47;1.30;;;2.10;99.90;;;;;;5002363;28;20038;-84
2023/03/05 05:43:57;;;;;;;3.92;1.70;;;2.80;99.90;;;;;;4984639;28;20583;-83
2023/03/05 05:46:23;;;;;;;5.10;1.45;;;2.70;99.90;;;;;;5002504;28;20038;-83
2023/03/05 05:48:49;;;;;;;4.45;1.55;;;2.00;99.90;;;;;;4969462;28;20395;-83
2023/03/05 05:51:20;;;;;;;4.22;1.48;;;2.00;99.90;;;;;;4971123;28;20053;-83
2023/03/05 05:53:47;;;;;;;1.88;1.27;;;2.00;99.90;;;;;;4994558;28;20062;-83
2023/03/05 05:56:13;;;;;;;6.10;1.20;;;2.00;99.90;;;;;;4970242;28;20120;-83
2023/03/05 05:58:41;;;;;;;6.53;1.38;;;2.00;99.90;;;;;;4985466;28;20068;-84
2023/03/05 06:01:20;;;;;;;5.97;1.42;;;2.80;99.90;;;;;;4991081;28;20171;-84
2023/03/05 06:03:45;;;;;;;5.80;1.30;;;2.20;99.90;;;;;;5004137;28;20484;-85
2023/03/05 06:06:14;;;;;;;5.85;1.20;;;2.20;99.90;;;;;;4990696;28;20042;-85
2023/03/05 06:08:40;;;;;;;3.92;1.65;;;2.30;99.90;;;;;;5005968;28;20049;-86
2023/03/05 06:11:06;;;;;;;4.43;1.50;;;2.10;99.90;;;;;;5020891;28;20045;-85
2023/03/05 06:13:32;;;;;;;4.00;1.58;;;1.90;99.90;;;;;;4989792;28;20046;-86
2023/03/05 06:16:00;;;;;;;5.00;1.40;;;2.60;99.90;;;;;;4990741;28;20129;-86
2023/03/05 06:18:26;;;;;;;5.50;1.85;;;2.70;99.90;;;;;;5002328;28;20034;-86
2023/03/05 06:20:57;;;;;;;5.60;1.50;;;1.80;99.90;;;;;;4978302;28;20042;-86
2023/03/05 06:23:23;;;;;;;7.45;1.40;;;2.40;99.90;;;;;;4987536;28;20124;-85
2023/03/05 06:25:49;;;;;;;4.80;1.40;;;1.90;99.90;;;;;;5005705;28;20380;-86
2023/03/05 06:28:15;;;;;;;2.03;1.40;;;1.90;99.90;;;;;;4991190;28;20052;-86
2023/03/05 06:30:41;;;;;;;5.57;1.52;;;1.90;99.90;;;;;;5004685;28;20042;-85
2023/03/05 06:33:07;;;;;;;4.93;1.65;;;1.90;99.90;;;;;;4973801;28;20058;-85
2023/03/05 06:35:33;;;;;;;2.67;0.85;;;1.90;99.90;;;;;;5001394;28;20566;-86
2023/03/05 06:37:58;;;;;;;2.35;1.30;;;2.60;99.90;;;;;;4988319;28;20038;-85
2023/03/05 06:40:24;;;;;;;3.03;1.23;;;1.90;99.90;;;;;;4986086;28;20034;-85
2023/03/05 06:42:50;;;;;;;3.10;1.60;;;2.00;99.90;;;;;;5007686;28;20045;-85
2023/03/05 06:45:15;;;;;;;4.30;1.65;;;2.00;99.90;;;;;;5010707;28;20030;-85
2023/03/05 06:47:41;;;;;;;3.47;1.92;;;2.90;99.90;;;;;;4995762;28;20117;-85
2023/03/05 06:50:08;;;;;;;5.32;1.70;;;2.20;99.90;;;;;;5008700;28;20042;-85
2023/03/05 06:52:33;;;;;;;3.83;1.73;;;2.00;99.90;;;;;;5010551;28;20042;-85
2023/03/05 06:54:59;;;;;;;11.13;1.88;;;2.60;99.90;;;;;;4995829;28;20058;-86
2023/03/05 06:57:25;;;;;;;10.05;2.42;;;2.80;99.90;;;;;;5007000;28;20049;-85
2023/03/05 06:59:51;;;;;;;2.60;1.55;;;2.10;99.90;;;;;;5003466;28;20133;-86
2023/03/05 07:02:17;;;;;;;4.05;1.60;;;2.80;99.90;;;;;;5016705;28;20045;-86
2023/03/05 07:04:43;;;;;;;3.53;1.40;;;2.50;99.90;;;;;;5012969;28;20087;-86
2023/03/05 07:07:09;;;;;;;5.10;1.70;;;2.10;99.90;;;;;;4994147;28;20049;-86
2023/03/05 07:09:41;;;;;;;6.97;1.70;;;2.10;99.90;;;;;;4992873;28;20514;-86
2023/03/05 07:12:09;;;;;;;6.63;1.70;;;2.20;99.90;;;;;;5017213;28;20034;-85
2023/03/05 07:14:35;;;;;;;5.03;1.55;;;2.20;99.90;;;;;;4997076;28;20042;-86
2023/03/05 07:17:01;;;;;;;7.10;1.98;;;2.20;99.90;;;;;;4992468;28;20050;-85
2023/03/05 07:19:26;;;;;;;6.55;1.73;;;2.20;99.90;;;;;;4975927;28;20045;-86
2023/03/05 07:21:52;;;;;;;4.18;1.60;;;2.20;99.90;;;;;;5008849;28;20477;-86
2023/03/05 07:24:18;;;;;;;4.07;1.27;;;2.30;99.90;;;;;;5003131;28;20451;-86
2023/03/05 07:26:43;;;;;;;3.53;1.40;;;2.50;99.90;;;;;;4989010;28;20051;-85
2023/03/05 07:29:09;;;;;;;7.78;1.70;;;3.10;99.90;;;;;;4975869;28;20395;-86
2023/03/05 07:31:35;;;;;;;7.10;2.25;;;2.40;99.90;;;;;;5016205;28;20045;-86
2023/03/05 07:34:02;;;;;;;2.53;1.42;;;2.80;99.90;;;;;;4969203;28;20104;-85
2023/03/05 07:36:29;;;;;;;3.13;1.80;;;2.40;99.90;;;;;;4986435;28;20595;-85
2023/03/05 07:38:55;;;;;;;8.23;2.08;;;3.00;99.90;;;;;;4985011;28;20460;-85
2023/03/05 07:41:22;;;;;;;3.10;1.55;;;2.50;99.90;;;;;;4980363;28;20056;-85
2023/03/05 07:43:49;;;;;;;6.20;1.77;;;3.20;99.90;;;;;;4988167;28;20110;-85
2023/03/05 07:46:17;;;;;;;5.75;1.42;;;3.10;99.90;;;;;;5002470;28;20044;-86
2023/03/05 07:48:43;;;;;;;5.38;2.17;;;2.60;99.90;;;;;;5007561;28;20060;-85
2023/03/05 07:51:15;;;;;;;6.40;2.00;;;2.80;99.90;;;;;;4990118;28;20042;-86
2023/03/05 07:53:45;;;;;;;4.60;1.70;;;2.90;99.90;;;;;;5009541;28;20039;-86
2023/03/05 07:56:11;;;;;;;3.72;1.45;;;3.30;99.90;;;;;;5001805;28;20038;-86
2023/03/05 07:58:37;;;;;;;6.45;1.92;;;3.60;99.90;;;;;;5012980;28;20068;-83
2023/03/05 08:01:03;;;;;;;4.57;1.85;;;3.30;99.90;;;;;;4985780;28;20191;-86
2023/03/05 08:03:29;;;;;;;7.55;1.70;;;3.50;99.90;;;;;;4989725;28;20037;-87
2023/03/05 08:05:55;;;;;;;4.68;1.88;;;3.90;99.90;;;;;;5009964;28;20479;-88
2023/03/05 08:08:20;;;;;;;7.43;1.63;;;4.50;99.90;;;;;;4990979;28;20477;-85
2023/03/05 08:10:46;;;;;;;5.95;2.08;;;4.90;99.90;;;;;;4961605;28;20046;-84
2023/03/05 08:13:12;;;;;;;6.07;1.30;;;4.10;99.90;;;;;;5000369;28;20617;-84
2023/03/05 08:15:37;;;;;;;8.77;2.15;;;4.40;99.90;;;;;;4981123;28;20029;-87
2023/03/05 08:18:03;;;;;;;5.68;3.40;;;4.60;99.90;;;;;;4993337;28;20403;-93
2023/03/05 08:20:29;;;;;;;6.82;2.40;;;4.10;99.90;;;;;;4972592;28;20046;-84
2023/03/05 08:22:54;;;;;;;11.75;4.90;;;4.20;99.90;;;;;;5013356;28;20513;-86
2023/03/05 08:25:21;;;;;;;5.97;2.50;;;4.60;99.90;;;;;;4983286;28;20465;-86
2023/03/05 08:27:47;;;;;;;4.50;2.10;;;4.20;99.90;;;;;;5011935;28;20026;-86
2023/03/05 08:30:17;;;;;;;6.88;2.42;;;4.50;99.90;;;;;;5012095;28;20029;-91
2023/03/05 08:32:42;;;;;;;3.95;1.80;;;4.30;99.90;;;;;;4996107;28;20042;-92
2023/03/05 08:35:08;;;;;;;3.40;1.60;;;4.50;99.90;;;;;;4981461;28;20092;-95
2023/03/05 08:37:35;;;;;;;10.88;1.48;;;5.10;99.90;;;;;;4978283;28;20290;-89
2023/03/05 08:40:01;;;;;;;3.70;1.60;;;5.30;99.90;;;;;;5006210;28;20030;-89
2023/03/05 08:42:27;;;;;;;4.90;1.80;;;4.90;99.90;;;;;;4986122;28;20042;-87
2023/03/05 08:44:53;;;;;;;5.78;1.60;;;5.00;99.90;;;;;;4974679;28;20384;-87
2023/03/05 08:47:19;;;;;;;4.85;1.42;;;5.10;99.90;;;;;;4990752;28;20095;-88
2023/03/05 08:49:45;;;;;;;5.22;1.70;;;5.20;99.90;;;;;;4976286;28;20380;-88
2023/03/05 08:52:11;;;;;;;6.55;1.90;;;5.80;99.90;;;;;;4957606;28;20043;-87
2023/03/05 08:54:37;;;;;;;8.88;2.97;;;5.50;99.90;;;;;;4991809;28;20061;-90
2023/03/05 08:57:03;;;;;;;5.13;1.58;;;6.00;99.90;;;;;;4992747;28;20073;-88
2023/03/05 08:59:29;;;;;;;5.40;2.78;;;5.60;99.90;;;;;;4973202;28;20077;-88
2023/03/05 09:01:59;;;;;;;3.70;1.60;;;5.60;99.90;;;;;;4991987;28;20045;-90
2023/03/05 09:04:24;;;;;;;4.80;2.03;;;5.70;99.90;;;;;;4994345;28;20085;-89
2023/03/05 09:06:51;;;;;;;5.40;1.58;;;5.80;99.90;;;;;;4975541;28;20545;-85
2023/03/05 09:09:19;;;;;;;2.47;1.58;;;6.10;99.90;;;;;;4975996;28;20049;-84
2023/03/05 09:11:45;;;;;;;3.65;1.42;;;6.60;99.90;;;;;;5007647;28;20491;-84
2023/03/05 09:14:10;;;;;;;3.85;1.20;;;6.90;99.90;;;;;;5006384;28;20065;-86
2023/03/05 09:16:39;;;;;;;6.68;1.80;;;7.30;99.90;;;;;;5023763;28;20577;-87
2023/03/05 09:19:04;;;;;;;2.90;1.20;;;7.80;99.90;;;;;;4977131;28;20054;-88
2023/03/05 09:21:30;;;;;;;6.85;1.60;;;8.00;99.90;;;;;;4992077;28;20065;-88
2023/03/05 09:23:58;;;;;;;3.40;1.17;;;8.10;99.90;;;;;;4964702;28;20511;-86
2023/03/05 09:26:24;;;;;;;5.97;1.77;;;8.10;99.90;;;;;;5007697;28;20121;-89
2023/03/05 09:28:50;;;;;;;6.95;1.90;;;8.00;99.90;;;;;;4991147;28;20209;-87
2023/03/05 09:31:16;;;;;;;3.70;1.70;;;8.30;99.90;;;;;;4990694;28;20049;-89
2023/03/05 09:33:42;;;;;;;5.60;1.55;;;8.50;99.90;;;;;;4983644;28;20375;-88
2023/03/05 09:36:37;;;;;;;7.97;1.52;;;8.60;99.90;;;;;;4981060;28;20080;-86
2023/03/05 09:39:05;;;;;;;7.93;1.50;;;8.90;99.90;;;;;;5001915;28;20038;-88
2023/03/05 09:41:53;;;;;;;3.83;1.90;;;9.40;99.90;;;;;;4979915;28;20041;-87
2023/03/05 09:44:40;;;;;;;7.38;1.38;;;10.10;99.90;;;;;;4994265;28;20073;-90
2023/03/05 09:47:18;;;;;;;7.47;2.10;;;10.60;99.90;;;;;;5017496;28;20498;-89
2023/03/05 09:49:58;;;;;;;7.78;2.25;;;10.90;99.90;;;;;;5010848;28;20049;-87
2023/03/05 09:52:49;;;;;;;5.38;2.00;;;10.80;99.90;;;;;;5009147;28;20356;-88
2023/03/05 09:55:27;;;;;;;3.80;1.30;;;10.60;99.90;;;;;;5009286;28;20455;-91
2023/03/05 09:57:56;;;;;;;5.47;1.65;;;10.50;99.90;;;;;;4997454;28;20045;-90
2023/03/05 10:00:32;;;;;;;4.45;1.27;;;10.40;99.90;;;;;;4995255;28;20110;-91
2023/03/05 10:03:03;;;;;;;4.05;1.40;;;10.40;99.90;;;;;;4999221;28;20111;-93
2023/03/05 10:06:09;;;;;;;4.15;1.17;;;10.60;99.90;;;;;;4996722;28;20041;-90
2023/03/05 10:08:53;;;;;;;8.07;1.40;;;10.20;99.90;;;;;;4998043;28;20046;-91
2023/03/05 10:11:29;;;;;;;6.10;1.90;;;10.00;99.90;;;;;;5028127;28;20056;-90
2023/03/05 10:13:55;;;;;;;4.53;1.38;;;9.30;99.90;;;;;;5006270;28;20405;-93
2023/03/05 10:16:51;;;;;;;7.35;1.30;;;9.10;99.90;;;;;;5016355;28;20045;-91
2023/03/05 10:19:55;;;;;;;4.53;1.23;;;9.20;99.90;;;;;;5013626;28;20026;-91
2023/03/05 10:22:28;;;;;;;2.88;1.30;;;9.30;99.90;;;;;;5000165;28;20046;-92
2023/03/05 10:25:10;;;;;;;6.70;1.52;;;9.30;99.90;;;;;;5001035;28;20132;-92
2023/03/05 10:28:16;;;;;;;5.80;1.35;;;9.00;99.90;;;;;;5013537;28;20037;-96
2023/03/05 10:31:20;;;;;;;7.38;1.30;;;9.20;99.90;;;;;;5005719;28;20126;-89
2023/03/05 10:34:04;;;;;;;1.92;1.10;;;9.80;99.90;;;;;;5015764;28;20055;-95
2023/03/05 10:37:08;;;;;;;2.42;0.90;;;9.30;99.90;;;;;;5005424;28;20526;-95
2023/03/05 10:40:22;;;;;;;4.45;1.10;;;8.90;99.90;;;;;;4970871;28;20042;-89
2023/03/05 10:42:56;;;;;;;4.90;1.90;;;8.60;99.90;;;;;;4999436;28;20137;-89
2023/03/05 10:45:25;;;;;;;4.63;1.20;;;8.30;99.90;;;;;;5017714;28;20110;-89
2023/03/05 10:48:00;;;;;;;3.88;1.20;;;7.90;99.90;;;;;;4992984;28;20038;-90
2023/03/05 10:50:32;;;;;;;5.03;1.55;;;7.40;99.90;;;;;;5003658;28;20433;-89
2023/03/05 10:53:16;;;;;;;4.50;1.40;;;7.10;99.90;;;;;;5002847;28;20447;-92
2023/03/05 10:55:41;;;;;;;4.90;1.50;;;6.90;99.90;;;;;;4995051;28;20050;-90
2023/03/05 10:58:15;;;;;;;6.57;1.38;;;6.50;99.90;;;;;;5000599;28;20037;-86
2023/03/05 11:01:09;;;;;;;1.75;1.00;;;6.20;99.90;;;;;;4999337;28;20073;-92
2023/03/05 11:03:54;;;;;;;1.45;0.85;;;5.90;99.90;;;;;;5021433;28;20045;-90
2023/03/05 11:06:27;;;;;;;1.17;0.82;;;5.60;99.90;;;;;;4994129;28;20050;-90
2023/03/05 11:08:53;;;;;;;1.48;1.30;;;5.40;99.90;;;;;;4997359;28;20034;-88
2023/03/05 11:11:20;;;;;;;3.63;1.38;;;5.40;99.90;;;;;;5004402;28;20513;-91
2023/03/05 11:13:59;;;;;;;3.28;1.10;;;5.40;99.90;;;;;;4984016;28;20056;-88
2023/03/05 11:16:33;;;;;;;2.90;1.00;;;5.40;99.90;;;;;;5013863;28;20038;-88
2023/03/05 11:19:14;;;;;;;2.35;0.70;;;5.80;99.90;;;;;;5012563;28;20034;-87
2023/03/05 11:21:41;;;;;;;1.00;0.60;;;6.50;99.90;;;;;;5003957;28;20037;-93
2023/03/05 11:24:18;;;;;;;2.45;0.70;;;7.00;99.90;;;;;;4982899;28;20095;-87
2023/03/05 11:27:08;;;;;;;2.78;1.02;;;7.20;99.90;;;;;;5009799;28;20115;-95
2023/03/05 11:29:45;;;;;;;6.60;1.00;;;7.30;99.90;;;;;;4997256;28;20176;-91
2023/03/05 11:32:15;;;;;;;1.77;0.80;;;7.40;99.90;;;;;;4993447;28;20376;-91
2023/03/05 11:34:41;;;;;;;1.88;1.10;;;7.50;99.90;;;;;;4991807;28;20041;-90
2023/03/05 11:37:30;;;;;;;4.68;1.00;;;7.30;99.90;;;;;;4967121;28;20034;-88
2023/03/05 11:40:14;;;;;;;0.93;0.68;;;6.80;99.90;;;;;;5013094;28;20048;-88
2023/03/05 11:42:42;;;;;;;4.22;1.77;;;6.50;99.90;;;;;;5003606;28;20046;-91
2023/03/05 11:45:15;;;;;;;1.70;0.68;;;6.20;99.90;;;;;;4994380;28;20104;-82
2023/03/05 11:47:52;;;;;;;1.65;0.70;;;6.00;99.90;;;;;;5015224;28;20049;-83
2023/03/05 11:50:24;;;;;;;0.80;0.80;;;5.90;99.90;;;;;;4984764;28;20042;-83
2023/03/05 11:52:56;;;;;;;2.60;1.10;;;5.90;99.90;;;;;;5003932;28;20064;-84
2023/03/05 11:56:03;;;;;;;3.60;1.23;;;6.10;99.90;;;;;;5006350;28;20057;-82
2023/03/05 11:58:36;;;;;;;5.18;1.90;;;6.40;99.90;;;;;;4995232;28;20069;-84
2023/03/05 12:01:05;;;;;;;3.67;2.03;;;6.70;99.90;;;;;;5003328;28;20980;-80
2023/03/05 12:03:34;;;;;;;1.20;0.88;;;6.80;99.90;;;;;;5005802;28;20124;-83
2023/03/05 12:06:03;;;;;;;1.48;1.38;;;7.10;99.90;;;;;;4986450;28;20025;-82
2023/03/05 12:08:33;;;;;;;4.10;1.33;;;7.00;99.90;;;;;;4998468;28;20061;-83
2023/03/05 12:11:05;;;;;;;4.65;1.40;;;7.10;99.90;;;;;;5002657;28;20042;-82
2023/03/05 12:13:39;;;;;;;2.92;1.20;;;7.20;99.90;;;;;;4984314;28;20100;-81
2023/03/05 12:16:11;;;;;;;4.40;1.33;;;7.20;99.90;;;;;;4997142;28;20034;-82
2023/03/05 12:18:50;;;;;;;3.60;1.40;;;7.20;99.90;;;;;;4985680;28;20385;-82
2023/03/05 12:21:32;;;;;;;4.47;1.38;;;7.40;99.90;;;;;;4986905;28;20044;-81
2023/03/05 12:24:01;;;;;;;6.80;1.03;;;7.50;99.90;;;;;;4997937;28;20042;-82
2023/03/05 12:26:57;;;;;;;7.05;1.60;;;7.50;99.90;;;;;;4986165;28;20077;-89
2023/03/05 12:29:29;;;;;;;2.35;1.08;;;7.30;99.90;;;;;;4986007;28;20060;-84
2023/03/05 12:31:56;;;;;;;3.38;1.20;;;7.40;99.90;;;;;;4988477;28;20072;-83
2023/03/05 12:34:40;;;;;;;3.03;1.30;;;7.40;99.90;;;;;;4987226;28;20061;-90
2023/03/05 12:37:20;;;;;;;3.38;1.35;;;7.70;99.90;;;;;;4997066;28;20042;-92
2023/03/05 12:39:49;;;;;;;4.72;1.42;;;7.70;99.90;;;;;;4986454;28;20041;-91
2023/03/05 12:42:27;;;;;;;1.42;1.30;;;7.70;99.90;;;;;;5002427;28;21637;-89
2023/03/05 12:45:08;;;;;;;3.65;1.02;;;7.90;99.90;;;;;;5009023;28;20121;-85
2023/03/05 12:47:45;;;;;;;5.43;1.52;;;7.80;99.90;;;;;;5003076;28;20037;-87
2023/03/05 12:50:26;;;;;;;3.60;1.33;;;7.70;99.90;;;;;;4973382;28;20049;-85
2023/03/05 12:53:06;;;;;;;3.08;1.30;;;7.50;99.90;;;;;;4985756;28;20053;-88
2023/03/05 12:55:33;;;;;;;3.40;1.48;;;7.30;99.90;;;;;;5005276;28;20046;-92
2023/03/05 12:58:10;;;;;;;2.47;1.48;;;7.20;99.90;;;;;;4988482;28;20038;-88
2023/03/05 13:00:43;;;;;;;2.95;1.40;;;7.40;99.90;;;;;;4999485;28;20034;-92
2023/03/05 13:03:16;;;;;;;4.53;1.40;;;7.60;99.90;;;;;;4984413;28;20129;-78
2023/03/05 13:05:51;;;;;;;5.00;1.92;;;7.90;99.90;;;;;;4984582;28;20087;-86
2023/03/05 13:08:36;;;;;;;6.63;2.47;;;8.10;99.90;;;;;;5006013;28;20044;-87